sensor_id;sensor_type;location;lat;lon;timestamp;temperature;humidity
23550;DHT22;11953;49.010;8.608;2022-07-25T00:01:51;21.50;99.90
23550;DHT22;11953;49.010;8.608;2022-07-25T00:04:40;21.40;99.90
23550;DHT22;11953;49.010;8.608;2022-07-25T00:07:27;21.40;99.90
23550;DHT22;11953;49.010;8.608;2022-07-25T00:10:14;21.50;99.90
23550;DHT22;11953;49.010;8.608;2022-07-25T00:13:00;21.40;99.90
23550;DHT22;11953;49.010;8.608;2022-07-25T00:15:47;21.20;99.90
23550;DHT22;11953;49.010;8.608;2022-07-25T00:18:34;21.10;99.90
23550;DHT22;11953;49.010;8.608;2022-07-25T00:21:22;21.20;99.90
23550;DHT22;11953;49.010;8.608;2022-07-25T00:24:09;21.40;99.90
23550;DHT22;11953;49.010;8.608;2022-07-25T00:26:56;21.50;99.90
23550;DHT22;11953;49.010;8.608;2022-07-25T00:29:43;21.70;99.90
23550;DHT22;11953;49.010;8.608;2022-07-25T00:32:29;21.80;99.90
23550;DHT22;11953;49.010;8.608;2022-07-25T00:35:17;21.80;99.90
23550;DHT22;11953;49.010;8.608;2022-07-25T00:38:05;21.90;99.90
23550;DHT22;11953;49.010;8.608;2022-07-25T00:40:51;22.00;99.90
23550;DHT22;11953;49.010;8.608;2022-07-25T00:43:41;22.10;99.90
23550;DHT22;11953;49.010;8.608;2022-07-25T00:46:28;22.20;99.90
23550;DHT22;11953;49.010;8.608;2022-07-25T00:49:16;22.20;99.90
23550;DHT22;11953;49.010;8.608;2022-07-25T00:52:03;22.00;99.90
23550;DHT22;11953;49.010;8.608;2022-07-25T00:54:51;21.80;99.90
23550;DHT22;11953;49.010;8.608;2022-07-25T00:57:38;21.80;99.90
23550;DHT22;11953;49.010;8.608;2022-07-25T01:00:25;22.00;99.90
23550;DHT22;11953;49.010;8.608;2022-07-25T01:03:12;22.10;99.90
23550;DHT22;11953;49.010;8.608;2022-07-25T01:05:59;22.20;99.90
23550;DHT22;11953;49.010;8.608;2022-07-25T01:08:46;22.30;99.90
23550;DHT22;11953;49.010;8.608;2022-07-25T01:11:34;22.40;99.90
23550;DHT22;11953;49.010;8.608;2022-07-25T01:14:21;22.40;99.90
23550;DHT22;11953;49.010;8.608;2022-07-25T01:17:07;22.30;99.90
23550;DHT22;11953;49.010;8.608;2022-07-25T01:19:53;22.40;99.90
23550;DHT22;11953;49.010;8.608;2022-07-25T01:22:42;22.50;99.90
23550;DHT22;11953;49.010;8.608;2022-07-25T01:25:29;22.50;99.90
23550;DHT22;11953;49.010;8.608;2022-07-25T01:28:16;22.40;99.90
23550;DHT22;11953;49.010;8.608;2022-07-25T01:31:03;22.40;99.90
23550;DHT22;11953;49.010;8.608;2022-07-25T01:33:50;22.40;99.90
23550;DHT22;11953;49.010;8.608;2022-07-25T01:36:37;22.20;99.90
23550;DHT22;11953;49.010;8.608;2022-07-25T01:39:25;22.00;99.90
23550;DHT22;11953;49.010;8.608;2022-07-25T01:42:12;22.00;99.90
23550;DHT22;11953;49.010;8.608;2022-07-25T01:45:00;21.90;99.90
23550;DHT22;11953;49.010;8.608;2022-07-25T01:47:47;21.80;99.90
23550;DHT22;11953;49.010;8.608;2022-07-25T01:50:34;21.60;99.90
23550;DHT22;11953;49.010;8.608;2022-07-25T01:53:20;21.60;99.90
23550;DHT22;11953;49.010;8.608;2022-07-25T01:56:09;21.70;99.90
23550;DHT22;11953;49.010;8.608;2022-07-25T01:58:56;21.60;99.90
23550;DHT22;11953;49.010;8.608;2022-07-25T02:01:43;21.70;99.90
23550;DHT22;11953;49.010;8.608;2022-07-25T02:04:31;21.90;99.90
23550;DHT22;11953;49.010;8.608;2022-07-25T02:07:17;21.90;99.90
23550;DHT22;11953;49.010;8.608;2022-07-25T02:10:06;21.90;99.90
23550;DHT22;11953;49.010;8.608;2022-07-25T02:12:54;21.90;99.90
23550;DHT22;11953;49.010;8.608;2022-07-25T02:15:41;21.90;99.90
23550;DHT22;11953;49.010;8.608;2022-07-25T02:18:28;21.90;99.90
23550;DHT22;11953;49.010;8.608;2022-07-25T02:21:15;21.90;99.90
23550;DHT22;11953;49.010;8.608;2022-07-25T02:24:02;21.90;99.90
23550;DHT22;11953;49.010;8.608;2022-07-25T02:26:49;21.80;99.90
23550;DHT22;11953;49.010;8.608;2022-07-25T02:29:36;21.80;99.90
23550;DHT22;11953;49.010;8.608;2022-07-25T02:32:23;21.80;99.90
23550;DHT22;11953;49.010;8.608;2022-07-25T02:35:10;21.90;99.90
23550;DHT22;11953;49.010;8.608;2022-07-25T02:37:58;21.90;99.90
23550;DHT22;11953;49.010;8.608;2022-07-25T02:40:44;21.80;99.90
23550;DHT22;11953;49.010;8.608;2022-07-25T02:43:31;21.80;99.90
23550;DHT22;11953;49.010;8.608;2022-07-25T02:46:18;21.80;99.90
23550;DHT22;11953;49.010;8.608;2022-07-25T02:49:05;21.90;99.90
23550;DHT22;11953;49.010;8.608;2022-07-25T02:51:52;21.90;99.90
23550;DHT22;11953;49.010;8.608;2022-07-25T02:54:39;21.90;99.90
23550;DHT22;11953;49.010;8.608;2022-07-25T02:57:25;21.90;99.90
23550;DHT22;11953;49.010;8.608;2022-07-25T03:00:13;21.80;99.90
23550;DHT22;11953;49.010;8.608;2022-07-25T03:03:01;21.80;99.90
23550;DHT22;11953;49.010;8.608;2022-07-25T03:05:48;21.60;99.90
23550;DHT22;11953;49.010;8.608;2022-07-25T03:08:35;21.50;99.90
23550;DHT22;11953;49.010;8.608;2022-07-25T03:11:21;21.50;99.90
23550;DHT22;11953;49.010;8.608;2022-07-25T03:14:08;21.40;99.90
23550;DHT22;11953;49.010;8.608;2022-07-25T03:16:55;21.20;99.90
23550;DHT22;11953;49.010;8.608;2022-07-25T03:19:43;21.10;99.90
23550;DHT22;11953;49.010;8.608;2022-07-25T03:22:29;21.20;99.90
23550;DHT22;11953;49.010;8.608;2022-07-25T03:25:16;21.30;99.90
23550;DHT22;11953;49.010;8.608;2022-07-25T03:28:06;21.50;99.90
23550;DHT22;11953;49.010;8.608;2022-07-25T03:30:53;21.50;99.90
23550;DHT22;11953;49.010;8.608;2022-07-25T03:33:40;21.30;99.90
23550;DHT22;11953;49.010;8.608;2022-07-25T03:36:28;20.90;99.90
23550;DHT22;11953;49.010;8.608;2022-07-25T03:39:14;20.90;99.90
23550;DHT22;11953;49.010;8.608;2022-07-25T03:42:01;20.80;99.90
23550;DHT22;11953;49.010;8.608;2022-07-25T03:44:47;20.60;99.90
23550;DHT22;11953;49.010;8.608;2022-07-25T03:47:34;20.30;99.90
23550;DHT22;11953;49.010;8.608;2022-07-25T03:50:21;20.10;99.90
23550;DHT22;11953;49.010;8.608;2022-07-25T03:53:09;20.20;99.90
23550;DHT22;11953;49.010;8.608;2022-07-25T03:55:55;20.40;99.90
23550;DHT22;11953;49.010;8.608;2022-07-25T03:58:42;20.50;99.90
23550;DHT22;11953;49.010;8.608;2022-07-25T04:01:29;20.40;99.90
23550;DHT22;11953;49.010;8.608;2022-07-25T04:04:16;20.50;99.90
23550;DHT22;11953;49.010;8.608;2022-07-25T04:07:03;20.60;99.90
23550;DHT22;11953;49.010;8.608;2022-07-25T04:09:51;20.70;99.90
23550;DHT22;11953;49.010;8.608;2022-07-25T04:12:38;20.80;99.90
23550;DHT22;11953;49.010;8.608;2022-07-25T04:15:25;20.80;99.90
23550;DHT22;11953;49.010;8.608;2022-07-25T04:18:13;21.00;99.90
23550;DHT22;11953;49.010;8.608;2022-07-25T04:21:07;21.00;99.90
23550;DHT22;11953;49.010;8.608;2022-07-25T04:23:55;21.30;99.90
23550;DHT22;11953;49.010;8.608;2022-07-25T04:26:43;21.50;99.90
23550;DHT22;11953;49.010;8.608;2022-07-25T04:29:29;21.50;99.90
23550;DHT22;11953;49.010;8.608;2022-07-25T04:32:16;21.70;99.90
23550;DHT22;11953;49.010;8.608;2022-07-25T04:35:08;21.90;99.90
23550;DHT22;11953;49.010;8.608;2022-07-25T04:37:54;21.80;99.90
23550;DHT22;11953;49.010;8.608;2022-07-25T04:40:41;21.80;99.90
23550;DHT22;11953;49.010;8.608;2022-07-25T04:43:29;21.80;99.90
23550;DHT22;11953;49.010;8.608;2022-07-25T04:46:19;21.70;99.90
23550;DHT22;11953;49.010;8.608;2022-07-25T04:49:07;21.70;99.90
23550;DHT22;11953;49.010;8.608;2022-07-25T04:51:53;21.50;99.90
23550;DHT22;11953;49.010;8.608;2022-07-25T04:54:40;21.50;99.90
23550;DHT22;11953;49.010;8.608;2022-07-25T04:57:27;21.50;99.90
23550;DHT22;11953;49.010;8.608;2022-07-25T05:00:15;21.50;99.90
23550;DHT22;11953;49.010;8.608;2022-07-25T05:03:02;21.50;99.90
23550;DHT22;11953;49.010;8.608;2022-07-25T05:05:49;21.60;99.90
23550;DHT22;11953;49.010;8.608;2022-07-25T05:08:36;21.80;99.90
23550;DHT22;11953;49.010;8.608;2022-07-25T05:11:23;22.00;99.90
23550;DHT22;11953;49.010;8.608;2022-07-25T05:14:10;22.20;99.90
23550;DHT22;11953;49.010;8.608;2022-07-25T05:16:58;22.20;99.90
23550;DHT22;11953;49.010;8.608;2022-07-25T05:19:45;22.40;99.90
23550;DHT22;11953;49.010;8.608;2022-07-25T05:22:32;22.70;99.90
23550;DHT22;11953;49.010;8.608;2022-07-25T05:25:19;23.20;99.90
23550;DHT22;11953;49.010;8.608;2022-07-25T05:28:05;23.50;99.90
23550;DHT22;11953;49.010;8.608;2022-07-25T05:30:54;23.90;99.90
23550;DHT22;11953;49.010;8.608;2022-07-25T05:33:42;24.60;99.90
23550;DHT22;11953;49.010;8.608;2022-07-25T05:36:29;25.30;99.90
23550;DHT22;11953;49.010;8.608;2022-07-25T05:39:16;26.00;99.90
23550;DHT22;11953;49.010;8.608;2022-07-25T05:42:03;26.60;99.90
23550;DHT22;11953;49.010;8.608;2022-07-25T05:44:49;27.10;99.90
23550;DHT22;11953;49.010;8.608;2022-07-25T05:47:36;27.50;99.90
23550;DHT22;11953;49.010;8.608;2022-07-25T05:50:24;27.80;99.90
23550;DHT22;11953;49.010;8.608;2022-07-25T05:53:11;27.90;99.90
23550;DHT22;11953;49.010;8.608;2022-07-25T05:55:57;28.40;99.90
23550;DHT22;11953;49.010;8.608;2022-07-25T05:58:44;28.60;99.90
23550;DHT22;11953;49.010;8.608;2022-07-25T06:01:31;28.70;99.90
23550;DHT22;11953;49.010;8.608;2022-07-25T06:04:18;28.80;99.90
23550;DHT22;11953;49.010;8.608;2022-07-25T06:07:13;29.20;99.90
23550;DHT22;11953;49.010;8.608;2022-07-25T06:10:01;29.70;99.90
23550;DHT22;11953;49.010;8.608;2022-07-25T06:12:48;29.80;99.90
23550;DHT22;11953;49.010;8.608;2022-07-25T06:15:34;30.10;99.80
23550;DHT22;11953;49.010;8.608;2022-07-25T06:18:22;30.40;99.50
23550;DHT22;11953;49.010;8.608;2022-07-25T06:21:08;30.50;99.10
23550;DHT22;11953;49.010;8.608;2022-07-25T06:23:56;30.70;98.40
23550;DHT22;11953;49.010;8.608;2022-07-25T06:26:44;31.30;97.20
23550;DHT22;11953;49.010;8.608;2022-07-25T06:29:30;31.50;97.00
23550;DHT22;11953;49.010;8.608;2022-07-25T06:32:17;32.00;96.50
23550;DHT22;11953;49.010;8.608;2022-07-25T06:35:04;32.30;95.60
23550;DHT22;11953;49.010;8.608;2022-07-25T06:37:51;32.40;95.90
23550;DHT22;11953;49.010;8.608;2022-07-25T06:40:39;32.90;95.00
23550;DHT22;11953;49.010;8.608;2022-07-25T06:43:26;33.10;94.90
23550;DHT22;11953;49.010;8.608;2022-07-25T06:46:12;33.50;94.30
23550;DHT22;11953;49.010;8.608;2022-07-25T06:48:59;33.90;93.20
23550;DHT22;11953;49.010;8.608;2022-07-25T06:51:46;34.10;93.00
23550;DHT22;11953;49.010;8.608;2022-07-25T06:54:33;34.00;92.20
23550;DHT22;11953;49.010;8.608;2022-07-25T06:57:21;34.50;91.80
23550;DHT22;11953;49.010;8.608;2022-07-25T07:00:11;34.80;91.50
23550;DHT22;11953;49.010;8.608;2022-07-25T07:03:00;34.70;91.10
23550;DHT22;11953;49.010;8.608;2022-07-25T07:05:47;34.90;90.80
23550;DHT22;11953;49.010;8.608;2022-07-25T07:08:33;35.10;90.20
23550;DHT22;11953;49.010;8.608;2022-07-25T07:11:21;34.90;88.00
23550;DHT22;11953;49.010;8.608;2022-07-25T07:14:09;35.20;86.70
23550;DHT22;11953;49.010;8.608;2022-07-25T07:16:55;35.20;87.30
23550;DHT22;11953;49.010;8.608;2022-07-25T07:19:43;35.40;86.40
23550;DHT22;11953;49.010;8.608;2022-07-25T07:22:30;35.30;85.10
23550;DHT22;11953;49.010;8.608;2022-07-25T07:25:18;35.50;85.20
23550;DHT22;11953;49.010;8.608;2022-07-25T07:28:06;35.80;85.20
23550;DHT22;11953;49.010;8.608;2022-07-25T07:30:54;36.10;82.20
23550;DHT22;11953;49.010;8.608;2022-07-25T07:34:01;36.10;81.90
23550;DHT22;11953;49.010;8.608;2022-07-25T07:36:47;36.40;85.00
23550;DHT22;11953;49.010;8.608;2022-07-25T07:39:33;36.70;81.70
23550;DHT22;11953;49.010;8.608;2022-07-25T07:42:20;36.60;81.90
23550;DHT22;11953;49.010;8.608;2022-07-25T07:45:11;37.00;80.70
23550;DHT22;11953;49.010;8.608;2022-07-25T07:48:00;37.10;77.40
23550;DHT22;11953;49.010;8.608;2022-07-25T07:50:46;37.30;78.00
23550;DHT22;11953;49.010;8.608;2022-07-25T07:53:33;37.50;77.90
23550;DHT22;11953;49.010;8.608;2022-07-25T07:56:38;37.90;75.80
23550;DHT22;11953;49.010;8.608;2022-07-25T07:59:26;37.90;75.30
23550;DHT22;11953;49.010;8.608;2022-07-25T08:02:13;38.10;74.60
23550;DHT22;11953;49.010;8.608;2022-07-25T08:05:02;38.30;74.00
23550;DHT22;11953;49.010;8.608;2022-07-25T08:07:50;38.30;73.00
23550;DHT22;11953;49.010;8.608;2022-07-25T08:10:39;38.10;73.30
23550;DHT22;11953;49.010;8.608;2022-07-25T08:13:27;38.20;73.60
23550;DHT22;11953;49.010;8.608;2022-07-25T08:16:15;38.30;73.50
23550;DHT22;11953;49.010;8.608;2022-07-25T08:19:02;38.30;72.40
23550;DHT22;11953;49.010;8.608;2022-07-25T08:21:50;38.60;71.70
23550;DHT22;11953;49.010;8.608;2022-07-25T08:24:37;38.80;71.30
23550;DHT22;11953;49.010;8.608;2022-07-25T08:27:24;38.80;71.70
23550;DHT22;11953;49.010;8.608;2022-07-25T08:30:14;38.70;69.60
23550;DHT22;11953;49.010;8.608;2022-07-25T08:33:02;39.00;69.50
23550;DHT22;11953;49.010;8.608;2022-07-25T08:35:50;39.10;68.50
23550;DHT22;11953;49.010;8.608;2022-07-25T08:38:39;38.80;67.00
23550;DHT22;11953;49.010;8.608;2022-07-25T08:41:26;38.60;66.80
23550;DHT22;11953;49.010;8.608;2022-07-25T08:44:16;38.80;67.40
23550;DHT22;11953;49.010;8.608;2022-07-25T08:47:03;38.70;65.70
23550;DHT22;11953;49.010;8.608;2022-07-25T08:49:54;38.40;65.70
23550;DHT22;11953;49.010;8.608;2022-07-25T08:52:49;38.50;65.30
23550;DHT22;11953;49.010;8.608;2022-07-25T08:55:57;38.60;64.80
23550;DHT22;11953;49.010;8.608;2022-07-25T08:58:44;38.60;65.70
23550;DHT22;11953;49.010;8.608;2022-07-25T09:01:31;38.60;64.50
23550;DHT22;11953;49.010;8.608;2022-07-25T09:04:19;38.50;64.40
23550;DHT22;11953;49.010;8.608;2022-07-25T09:07:06;38.50;63.50
23550;DHT22;11953;49.010;8.608;2022-07-25T09:09:53;38.60;63.30
23550;DHT22;11953;49.010;8.608;2022-07-25T09:12:41;38.90;63.00
23550;DHT22;11953;49.010;8.608;2022-07-25T09:15:38;39.30;62.70
23550;DHT22;11953;49.010;8.608;2022-07-25T09:18:26;39.40;62.50
23550;DHT22;11953;49.010;8.608;2022-07-25T09:21:13;39.60;61.20
23550;DHT22;11953;49.010;8.608;2022-07-25T09:24:07;39.90;60.90
23550;DHT22;11953;49.010;8.608;2022-07-25T09:26:57;40.10;60.90
23550;DHT22;11953;49.010;8.608;2022-07-25T09:29:45;39.70;60.50
23550;DHT22;11953;49.010;8.608;2022-07-25T09:32:32;39.70;59.90
23550;DHT22;11953;49.010;8.608;2022-07-25T09:35:29;39.20;59.70
23550;DHT22;11953;49.010;8.608;2022-07-25T09:38:17;39.30;60.10
23550;DHT22;11953;49.010;8.608;2022-07-25T09:41:05;39.40;59.80
23550;DHT22;11953;49.010;8.608;2022-07-25T09:43:52;38.80;59.50
23550;DHT22;11953;49.010;8.608;2022-07-25T09:46:40;38.80;60.50
23550;DHT22;11953;49.010;8.608;2022-07-25T09:49:38;39.10;60.30
23550;DHT22;11953;49.010;8.608;2022-07-25T09:52:25;39.10;59.20
23550;DHT22;11953;49.010;8.608;2022-07-25T09:55:12;39.70;59.50
23550;DHT22;11953;49.010;8.608;2022-07-25T09:58:00;40.10;58.50
23550;DHT22;11953;49.010;8.608;2022-07-25T10:00:47;40.20;57.80
23550;DHT22;11953;49.010;8.608;2022-07-25T10:03:45;40.20;57.80
23550;DHT22;11953;49.010;8.608;2022-07-25T10:06:38;40.20;57.70
23550;DHT22;11953;49.010;8.608;2022-07-25T10:09:25;40.30;57.30
23550;DHT22;11953;49.010;8.608;2022-07-25T10:12:17;40.50;57.50
23550;DHT22;11953;49.010;8.608;2022-07-25T10:15:06;40.10;56.40
23550;DHT22;11953;49.010;8.608;2022-07-25T10:18:02;39.70;56.70
23550;DHT22;11953;49.010;8.608;2022-07-25T10:20:54;40.10;56.30
23550;DHT22;11953;49.010;8.608;2022-07-25T10:23:41;39.90;56.60
23550;DHT22;11953;49.010;8.608;2022-07-25T10:26:29;39.90;56.50
23550;DHT22;11953;49.010;8.608;2022-07-25T10:29:16;39.80;56.40
23550;DHT22;11953;49.010;8.608;2022-07-25T10:32:06;40.10;55.70
23550;DHT22;11953;49.010;8.608;2022-07-25T10:34:54;40.20;55.80
23550;DHT22;11953;49.010;8.608;2022-07-25T10:37:44;39.60;55.10
23550;DHT22;11953;49.010;8.608;2022-07-25T10:40:35;38.40;55.50
23550;DHT22;11953;49.010;8.608;2022-07-25T10:43:22;37.90;56.90
23550;DHT22;11953;49.010;8.608;2022-07-25T10:46:14;37.30;57.50
23550;DHT22;11953;49.010;8.608;2022-07-25T10:49:04;37.30;56.90
23550;DHT22;11953;49.010;8.608;2022-07-25T10:51:55;37.50;57.40
23550;DHT22;11953;49.010;8.608;2022-07-25T10:54:52;37.30;57.70
23550;DHT22;11953;49.010;8.608;2022-07-25T10:57:39;37.00;58.10
23550;DHT22;11953;49.010;8.608;2022-07-25T11:00:46;36.80;59.20
23550;DHT22;11953;49.010;8.608;2022-07-25T11:03:32;36.80;59.30
23550;DHT22;11953;49.010;8.608;2022-07-25T11:06:29;36.70;59.10
23550;DHT22;11953;49.010;8.608;2022-07-25T11:09:18;36.40;58.80
23550;DHT22;11953;49.010;8.608;2022-07-25T11:12:14;36.30;59.40
23550;DHT22;11953;49.010;8.608;2022-07-25T11:15:03;36.40;59.40
23550;DHT22;11953;49.010;8.608;2022-07-25T11:17:51;36.60;59.10
23550;DHT22;11953;49.010;8.608;2022-07-25T11:20:39;36.90;58.40
23550;DHT22;11953;49.010;8.608;2022-07-25T11:23:27;36.80;58.40
23550;DHT22;11953;49.010;8.608;2022-07-25T11:26:13;36.80;59.40
23550;DHT22;11953;49.010;8.608;2022-07-25T11:29:01;36.40;58.70
23550;DHT22;11953;49.010;8.608;2022-07-25T11:31:56;36.10;59.30
23550;DHT22;11953;49.010;8.608;2022-07-25T11:34:46;36.20;59.70
23550;DHT22;11953;49.010;8.608;2022-07-25T11:37:36;36.20;59.50
23550;DHT22;11953;49.010;8.608;2022-07-25T11:40:24;36.10;59.60
23550;DHT22;11953;49.010;8.608;2022-07-25T11:43:18;35.90;59.00
23550;DHT22;11953;49.010;8.608;2022-07-25T11:46:07;35.80;60.20
23550;DHT22;11953;49.010;8.608;2022-07-25T11:49:03;35.70;59.40
23550;DHT22;11953;49.010;8.608;2022-07-25T11:51:53;35.80;59.80
23550;DHT22;11953;49.010;8.608;2022-07-25T11:54:49;35.80;61.00
23550;DHT22;11953;49.010;8.608;2022-07-25T11:57:39;35.80;59.70
23550;DHT22;11953;49.010;8.608;2022-07-25T12:00:26;35.50;60.30
23550;DHT22;11953;49.010;8.608;2022-07-25T12:03:17;35.30;60.40
23550;DHT22;11953;49.010;8.608;2022-07-25T12:06:10;35.30;60.90
23550;DHT22;11953;49.010;8.608;2022-07-25T12:08:57;35.90;61.20
23550;DHT22;11953;49.010;8.608;2022-07-25T12:11:44;36.50;59.80
23550;DHT22;11953;49.010;8.608;2022-07-25T12:14:41;36.80;59.40
23550;DHT22;11953;49.010;8.608;2022-07-25T12:17:28;37.10;60.40
23550;DHT22;11953;49.010;8.608;2022-07-25T12:20:19;37.30;58.60
23550;DHT22;11953;49.010;8.608;2022-07-25T12:23:07;37.50;58.70
23550;DHT22;11953;49.010;8.608;2022-07-25T12:25:54;37.60;59.10
23550;DHT22;11953;49.010;8.608;2022-07-25T12:28:41;37.70;58.70
23550;DHT22;11953;49.010;8.608;2022-07-25T12:31:28;37.70;59.00
23550;DHT22;11953;49.010;8.608;2022-07-25T12:34:15;37.20;58.70
23550;DHT22;11953;49.010;8.608;2022-07-25T12:37:03;36.70;58.90
23550;DHT22;11953;49.010;8.608;2022-07-25T12:39:50;36.30;59.50
23550;DHT22;11953;49.010;8.608;2022-07-25T12:42:38;36.10;59.30
23550;DHT22;11953;49.010;8.608;2022-07-25T12:45:28;36.10;59.70
23550;DHT22;11953;49.010;8.608;2022-07-25T12:48:14;36.10;59.20
23550;DHT22;11953;49.010;8.608;2022-07-25T12:51:01;36.10;59.60
23550;DHT22;11953;49.010;8.608;2022-07-25T12:53:49;36.00;59.70
23550;DHT22;11953;49.010;8.608;2022-07-25T12:56:35;36.10;60.30
23550;DHT22;11953;49.010;8.608;2022-07-25T12:59:22;36.10;59.60
23550;DHT22;11953;49.010;8.608;2022-07-25T13:02:09;36.00;59.90
23550;DHT22;11953;49.010;8.608;2022-07-25T13:04:56;35.80;60.00
23550;DHT22;11953;49.010;8.608;2022-07-25T13:07:43;35.70;59.70
23550;DHT22;11953;49.010;8.608;2022-07-25T13:10:31;35.50;60.00
23550;DHT22;11953;49.010;8.608;2022-07-25T13:13:18;35.60;61.00
23550;DHT22;11953;49.010;8.608;2022-07-25T13:16:05;35.70;61.30
23550;DHT22;11953;49.010;8.608;2022-07-25T13:18:52;35.60;61.10
23550;DHT22;11953;49.010;8.608;2022-07-25T13:21:39;35.40;60.80
23550;DHT22;11953;49.010;8.608;2022-07-25T13:24:26;35.20;60.30
23550;DHT22;11953;49.010;8.608;2022-07-25T13:27:16;35.10;60.20
23550;DHT22;11953;49.010;8.608;2022-07-25T13:30:04;35.00;59.70
23550;DHT22;11953;49.010;8.608;2022-07-25T13:32:52;35.00;60.20
23550;DHT22;11953;49.010;8.608;2022-07-25T13:35:38;34.70;59.70
23550;DHT22;11953;49.010;8.608;2022-07-25T13:38:25;34.60;60.40
23550;DHT22;11953;49.010;8.608;2022-07-25T13:41:13;34.60;60.60
23550;DHT22;11953;49.010;8.608;2022-07-25T13:44:03;34.60;61.00
23550;DHT22;11953;49.010;8.608;2022-07-25T13:46:50;34.80;61.80
23550;DHT22;11953;49.010;8.608;2022-07-25T13:49:37;34.80;62.10
23550;DHT22;11953;49.010;8.608;2022-07-25T13:52:24;34.90;62.50
23550;DHT22;11953;49.010;8.608;2022-07-25T13:55:11;34.90;62.90
23550;DHT22;11953;49.010;8.608;2022-07-25T13:57:57;34.90;63.00
23550;DHT22;11953;49.010;8.608;2022-07-25T14:00:45;35.00;62.90
23550;DHT22;11953;49.010;8.608;2022-07-25T14:03:33;35.10;62.80
23550;DHT22;11953;49.010;8.608;2022-07-25T14:06:21;35.10;63.40
23550;DHT22;11953;49.010;8.608;2022-07-25T14:09:07;35.10;64.20
23550;DHT22;11953;49.010;8.608;2022-07-25T14:11:55;35.20;63.80
23550;DHT22;11953;49.010;8.608;2022-07-25T14:14:42;35.10;62.40
23550;DHT22;11953;49.010;8.608;2022-07-25T14:17:30;34.80;62.20
23550;DHT22;11953;49.010;8.608;2022-07-25T14:20:18;34.60;62.80
23550;DHT22;11953;49.010;8.608;2022-07-25T14:23:04;34.40;63.50
23550;DHT22;11953;49.010;8.608;2022-07-25T14:25:51;34.30;63.60
23550;DHT22;11953;49.010;8.608;2022-07-25T14:28:37;34.10;64.80
23550;DHT22;11953;49.010;8.608;2022-07-25T14:31:25;33.70;65.50
23550;DHT22;11953;49.010;8.608;2022-07-25T14:34:13;33.40;68.20
23550;DHT22;11953;49.010;8.608;2022-07-25T14:37:00;33.10;79.40
23550;DHT22;11953;49.010;8.608;2022-07-25T14:39:47;32.80;75.50
23550;DHT22;11953;49.010;8.608;2022-07-25T14:42:34;32.50;74.50
23550;DHT22;11953;49.010;8.608;2022-07-25T14:45:22;32.10;75.30
23550;DHT22;11953;49.010;8.608;2022-07-25T14:48:09;31.50;80.80
23550;DHT22;11953;49.010;8.608;2022-07-25T14:50:57;31.00;88.90
23550;DHT22;11953;49.010;8.608;2022-07-25T14:53:44;30.30;94.20
23550;DHT22;11953;49.010;8.608;2022-07-25T14:56:37;30.10;97.20
23550;DHT22;11953;49.010;8.608;2022-07-25T14:59:24;30.60;98.80
23550;DHT22;11953;49.010;8.608;2022-07-25T15:02:10;30.90;98.40
23550;DHT22;11953;49.010;8.608;2022-07-25T15:04:57;31.20;96.40
23550;DHT22;11953;49.010;8.608;2022-07-25T15:07:45;31.40;94.70
23550;DHT22;11953;49.010;8.608;2022-07-25T15:10:32;31.60;95.00
23550;DHT22;11953;49.010;8.608;2022-07-25T15:13:19;31.70;93.70
23550;DHT22;11953;49.010;8.608;2022-07-25T15:16:16;31.80;93.60
23550;DHT22;11953;49.010;8.608;2022-07-25T15:19:03;31.90;92.40
23550;DHT22;11953;49.010;8.608;2022-07-25T15:22:01;32.00;91.30
23550;DHT22;11953;49.010;8.608;2022-07-25T15:24:49;32.00;90.90
23550;DHT22;11953;49.010;8.608;2022-07-25T15:27:56;32.10;90.10
23550;DHT22;11953;49.010;8.608;2022-07-25T15:30:42;32.10;90.70
23550;DHT22;11953;49.010;8.608;2022-07-25T15:33:29;32.00;90.90
23550;DHT22;11953;49.010;8.608;2022-07-25T15:36:18;31.90;91.60
23550;DHT22;11953;49.010;8.608;2022-07-25T15:39:10;31.90;91.50
23550;DHT22;11953;49.010;8.608;2022-07-25T15:41:58;31.70;91.60
23550;DHT22;11953;49.010;8.608;2022-07-25T15:44:46;31.70;91.60
23550;DHT22;11953;49.010;8.608;2022-07-25T15:47:33;31.60;92.00
23550;DHT22;11953;49.010;8.608;2022-07-25T15:50:20;31.50;92.30
23550;DHT22;11953;49.010;8.608;2022-07-25T15:53:07;31.50;92.30
23550;DHT22;11953;49.010;8.608;2022-07-25T15:55:54;31.50;92.40
23550;DHT22;11953;49.010;8.608;2022-07-25T15:58:42;31.40;91.80
23550;DHT22;11953;49.010;8.608;2022-07-25T16:01:29;31.40;91.80
23550;DHT22;11953;49.010;8.608;2022-07-25T16:04:16;31.50;92.20
23550;DHT22;11953;49.010;8.608;2022-07-25T16:07:03;31.60;92.90
23550;DHT22;11953;49.010;8.608;2022-07-25T16:09:50;31.50;92.50
23550;DHT22;11953;49.010;8.608;2022-07-25T16:12:39;31.50;92.60
23550;DHT22;11953;49.010;8.608;2022-07-25T16:15:28;31.50;92.70
23550;DHT22;11953;49.010;8.608;2022-07-25T16:18:15;31.60;92.30
23550;DHT22;11953;49.010;8.608;2022-07-25T16:21:01;31.50;91.40
23550;DHT22;11953;49.010;8.608;2022-07-25T16:23:48;31.50;91.20
23550;DHT22;11953;49.010;8.608;2022-07-25T16:26:35;31.50;91.20
23550;DHT22;11953;49.010;8.608;2022-07-25T16:29:22;31.40;90.90
23550;DHT22;11953;49.010;8.608;2022-07-25T16:32:11;31.40;90.40
23550;DHT22;11953;49.010;8.608;2022-07-25T16:34:58;31.50;90.50
23550;DHT22;11953;49.010;8.608;2022-07-25T16:37:45;31.60;90.40
23550;DHT22;11953;49.010;8.608;2022-07-25T16:40:32;31.50;89.30
23550;DHT22;11953;49.010;8.608;2022-07-25T16:43:19;31.60;86.80
23550;DHT22;11953;49.010;8.608;2022-07-25T16:46:06;31.60;84.90
23550;DHT22;11953;49.010;8.608;2022-07-25T16:48:54;31.60;84.40
23550;DHT22;11953;49.010;8.608;2022-07-25T16:51:41;31.70;84.20
23550;DHT22;11953;49.010;8.608;2022-07-25T16:54:28;31.70;84.30
23550;DHT22;11953;49.010;8.608;2022-07-25T16:57:15;31.60;84.10
23550;DHT22;11953;49.010;8.608;2022-07-25T17:00:02;31.50;83.40
23550;DHT22;11953;49.010;8.608;2022-07-25T17:02:50;31.50;82.30
23550;DHT22;11953;49.010;8.608;2022-07-25T17:05:39;31.40;81.80
23550;DHT22;11953;49.010;8.608;2022-07-25T17:08:25;31.40;82.30
23550;DHT22;11953;49.010;8.608;2022-07-25T17:11:12;31.50;82.10
23550;DHT22;11953;49.010;8.608;2022-07-25T17:13:58;31.40;81.90
23550;DHT22;11953;49.010;8.608;2022-07-25T17:16:45;31.30;82.00
23550;DHT22;11953;49.010;8.608;2022-07-25T17:19:31;31.30;82.40
23550;DHT22;11953;49.010;8.608;2022-07-25T17:22:25;31.30;82.80
23550;DHT22;11953;49.010;8.608;2022-07-25T17:25:12;31.20;82.80
23550;DHT22;11953;49.010;8.608;2022-07-25T17:27:59;31.10;82.40
23550;DHT22;11953;49.010;8.608;2022-07-25T17:30:46;31.00;82.60
23550;DHT22;11953;49.010;8.608;2022-07-25T17:33:33;31.00;83.30
23550;DHT22;11953;49.010;8.608;2022-07-25T17:36:21;30.90;83.00
23550;DHT22;11953;49.010;8.608;2022-07-25T17:39:09;30.80;83.00
23550;DHT22;11953;49.010;8.608;2022-07-25T17:41:56;30.60;82.20